Time;durP1;ratioP1;P1;durP2;ratioP2;P2;SDS_P1;SDS_P2;PMS_P1;PMS_P2;Temp;Humidity;BMP_temperature;BMP_pressure;BME280_temperature;BME280_humidity;BME280_pressure;Samples;Min_cycle;Max_cycle;Signal;HPM_P1;HPM_P2
2022/01/29 00:02:03;;;;;;;11.40;7.10;;;16.40;61.70;;;;;;5114209;27;20031;-74
2022/01/29 00:04:29;;;;;;;9.30;6.47;;;16.30;61.70;;;;;;5113974;28;20483;-74
2022/01/29 00:06:55;;;;;;;11.40;7.30;;;16.40;61.70;;;;;;5114173;28;20476;-75
2022/01/29 00:09:20;;;;;;;12.18;7.43;;;16.30;61.70;;;;;;5114049;28;20116;-75
2022/01/29 00:11:46;;;;;;;11.55;7.32;;;16.30;61.80;;;;;;5114364;28;20050;-74
2022/01/29 00:14:12;;;;;;;11.95;7.50;;;16.30;61.80;;;;;;5114560;28;20092;-74
2022/01/29 00:16:40;;;;;;;8.73;6.60;;;16.30;61.80;;;;;;5114021;28;20121;-73
2022/01/29 00:19:06;;;;;;;10.15;7.13;;;16.20;61.70;;;;;;5114126;28;20039;-76
2022/01/29 00:21:32;;;;;;;11.73;7.22;;;16.20;61.80;;;;;;5113830;28;20476;-73
2022/01/29 00:23:57;;;;;;;12.27;7.72;;;16.20;61.80;;;;;;5113983;28;20020;-74
2022/01/29 00:26:25;;;;;;;11.15;7.53;;;16.20;61.80;;;;;;5113573;28;20036;-75
2022/01/29 00:28:51;;;;;;;9.30;7.13;;;16.20;61.90;;;;;;5112626;28;20032;-76
2022/01/29 00:31:18;;;;;;;11.60;7.30;;;16.20;61.90;;;;;;5129222;27;20083;-75
2022/01/29 00:33:44;;;;;;;8.50;7.00;;;16.10;61.90;;;;;;5112892;28;20024;-73
2022/01/29 00:36:09;;;;;;;10.32;6.65;;;16.10;62.00;;;;;;5114154;28;20027;-73
2022/01/29 00:38:35;;;;;;;12.63;6.85;;;16.10;62.00;;;;;;5113542;28;20034;-73
2022/01/29 00:41:02;;;;;;;8.25;6.15;;;16.10;62.10;;;;;;5113683;28;20029;-73
2022/01/29 00:43:28;;;;;;;9.35;6.63;;;16.10;62.20;;;;;;5113470;28;20062;-75
2022/01/29 00:45:54;;;;;;;9.18;6.05;;;16.10;62.10;;;;;;5113551;28;20019;-74
2022/01/29 00:48:19;;;;;;;9.93;7.03;;;16.10;66.20;;;;;;5112475;28;20407;-74
2022/01/29 00:50:45;;;;;;;9.95;7.03;;;16.20;69.00;;;;;;5113558;28;20022;-76
2022/01/29 00:53:11;;;;;;;10.80;6.75;;;16.20;68.40;;;;;;5114111;28;20020;-75
2022/01/29 00:55:36;;;;;;;9.45;6.28;;;16.20;68.60;;;;;;5113238;28;20020;-75
2022/01/29 00:58:02;;;;;;;9.30;6.45;;;16.20;68.10;;;;;;5113294;28;20439;-74
2022/01/29 01:00:28;;;;;;;10.90;6.20;;;16.20;66.90;;;;;;5126433;27;20023;-75
2022/01/29 01:02:54;;;;;;;11.70;7.30;;;16.20;66.50;;;;;;5133300;27;20035;-73
2022/01/29 01:05:19;;;;;;;7.78;5.43;;;16.20;66.30;;;;;;5132493;27;20027;-73
2022/01/29 01:07:45;;;;;;;9.25;5.63;;;16.20;66.00;;;;;;5133785;27;20027;-74
2022/01/29 01:10:12;;;;;;;9.30;5.97;;;16.20;65.80;;;;;;5133852;27;20463;-74
2022/01/29 01:12:37;;;;;;;7.75;5.97;;;16.20;65.60;;;;;;5133392;27;20079;-74
2022/01/29 01:15:04;;;;;;;9.82;5.95;;;16.20;65.40;;;;;;5133512;27;20415;-74
2022/01/29 01:17:30;;;;;;;6.90;5.65;;;16.20;65.30;;;;;;5133307;27;20023;-75
2022/01/29 01:19:55;;;;;;;7.85;6.13;;;16.20;65.10;;;;;;5133456;27;20086;-74
2022/01/29 01:22:21;;;;;;;10.32;5.60;;;16.20;65.00;;;;;;5133206;27;20202;-73
2022/01/29 01:24:47;;;;;;;8.05;5.18;;;16.20;64.90;;;;;;5133351;27;20030;-73
2022/01/29 01:27:14;;;;;;;7.40;5.40;;;16.20;64.70;;;;;;5133478;27;20106;-73
2022/01/29 01:29:40;;;;;;;12.07;6.22;;;16.20;64.60;;;;;;5126490;27;20510;-74
2022/01/29 01:32:10;;;;;;;8.75;5.88;;;16.20;64.40;;;;;;5112704;28;20028;-74
2022/01/29 01:34:39;;;;;;;8.90;4.93;;;16.20;64.30;;;;;;5112497;28;20012;-74
2022/01/29 01:37:09;;;;;;;9.90;5.63;;;16.20;64.30;;;;;;5112608;28;20031;-73
2022/01/29 01:39:37;;;;;;;8.50;5.75;;;16.20;64.10;;;;;;5112400;28;20023;-74
2022/01/29 01:42:05;;;;;;;6.95;4.75;;;16.20;64.10;;;;;;5112536;28;20027;-73
2022/01/29 01:44:35;;;;;;;7.95;5.47;;;16.20;63.90;;;;;;5112223;28;20016;-73
2022/01/29 01:47:01;;;;;;;6.38;4.65;;;16.20;63.80;;;;;;5112445;28;20114;-72
2022/01/29 01:49:27;;;;;;;7.38;4.85;;;16.20;63.60;;;;;;5112110;28;20023;-73
2022/01/29 01:51:53;;;;;;;7.70;4.50;;;16.20;63.60;;;;;;5112303;28;20019;-72
2022/01/29 01:54:18;;;;;;;6.43;4.40;;;16.20;63.50;;;;;;5112025;28;20059;-72
2022/01/29 01:56:44;;;;;;;7.90;4.55;;;16.20;63.40;;;;;;5112501;28;20023;-73
2022/01/29 01:59:11;;;;;;;7.50;4.90;;;16.20;63.40;;;;;;5115957;27;20406;-73
2022/01/29 02:01:37;;;;;;;7.00;4.30;;;16.30;63.40;;;;;;5132467;27;20019;-74
2022/01/29 02:04:03;;;;;;;6.22;4.75;;;16.30;63.30;;;;;;5132594;27;20034;-73
2022/01/29 02:06:29;;;;;;;6.68;4.28;;;16.30;63.30;;;;;;5132378;27;20495;-74
2022/01/29 02:08:59;;;;;;;7.05;4.47;;;16.30;63.20;;;;;;5129576;27;20554;-74
2022/01/29 02:11:26;;;;;;;7.10;4.32;;;16.20;63.10;;;;;;5111976;28;20038;-73
2022/01/29 02:13:51;;;;;;;6.18;3.63;;;16.20;63.10;;;;;;5112099;28;20024;-74
2022/01/29 02:16:17;;;;;;;5.80;3.80;;;16.20;63.00;;;;;;5111770;28;20035;-74
2022/01/29 02:18:44;;;;;;;6.75;3.97;;;16.20;63.00;;;;;;5112229;28;20024;-74
2022/01/29 02:21:11;;;;;;;5.68;3.60;;;16.20;63.00;;;;;;5093805;28;20023;-73
2022/01/29 02:23:36;;;;;;;4.35;3.03;;;16.20;63.00;;;;;;5111573;28;20598;-73
2022/01/29 02:26:02;;;;;;;5.38;3.42;;;16.20;63.00;;;;;;5111749;28;20118;-74
2022/01/29 02:28:28;;;;;;;5.68;3.42;;;16.20;63.00;;;;;;5111594;28;20035;-74
2022/01/29 02:30:59;;;;;;;5.47;3.85;;;16.20;63.00;;;;;;5130253;27;20023;-74
2022/01/29 02:33:25;;;;;;;3.97;2.78;;;16.30;63.00;;;;;;5113407;28;20027;-73
2022/01/29 02:35:52;;;;;;;4.38;3.30;;;16.20;62.90;;;;;;5132188;27;20016;-73
2022/01/29 02:38:22;;;;;;;4.95;3.17;;;16.30;62.90;;;;;;5131921;27;20483;-73
2022/01/29 02:40:51;;;;;;;3.45;2.63;;;16.20;62.90;;;;;;5132022;28;20031;-73
2022/01/29 02:43:19;;;;;;;5.40;3.03;;;16.30;62.90;;;;;;5132013;28;20023;-74
2022/01/29 02:45:46;;;;;;;4.28;2.97;;;16.30;62.80;;;;;;5131990;27;20030;-74
2022/01/29 02:48:12;;;;;;;4.40;3.22;;;16.30;62.80;;;;;;5132493;28;20065;-76
2022/01/29 02:50:39;;;;;;;3.60;2.42;;;16.30;62.70;;;;;;5131824;27;20023;-75
2022/01/29 02:53:05;;;;;;;3.45;2.70;;;16.30;62.80;;;;;;5132037;27;20034;-76
2022/01/29 02:55:31;;;;;;;3.13;2.33;;;16.30;62.80;;;;;;5131875;28;20024;-74
2022/01/29 02:57:57;;;;;;;3.53;2.58;;;16.30;62.80;;;;;;5132146;27;20023;-76
2022/01/29 03:00:22;;;;;;;3.58;2.67;;;16.30;62.80;;;;;;5109170;28;20526;-74
2022/01/29 03:02:48;;;;;;;4.85;2.72;;;16.30;62.90;;;;;;5111282;28;20062;-75
2022/01/29 03:05:14;;;;;;;4.60;2.72;;;16.30;62.80;;;;;;5111213;28;20028;-74
2022/01/29 03:07:39;;;;;;;3.47;2.35;;;16.30;62.80;;;;;;5111721;28;20028;-76
2022/01/29 03:10:06;;;;;;;3.33;2.38;;;16.30;62.80;;;;;;5111585;28;20112;-74
2022/01/29 03:12:33;;;;;;;3.42;2.50;;;16.30;62.80;;;;;;5113796;28;20028;-75
2022/01/29 03:14:58;;;;;;;5.43;2.75;;;16.30;62.80;;;;;;5114038;28;20019;-76
2022/01/29 03:17:24;;;;;;;3.17;2.30;;;16.30;62.80;;;;;;5113957;28;20384;-77
2022/01/29 03:19:53;;;;;;;3.67;2.38;;;16.30;62.80;;;;;;5114031;28;20024;-77
2022/01/29 03:22:19;;;;;;;4.40;2.00;;;16.30;62.80;;;;;;5115034;28;20020;-75
2022/01/29 03:24:45;;;;;;;3.97;2.60;;;16.30;62.70;;;;;;5115164;28;20023;-76
2022/01/29 03:27:11;;;;;;;2.97;2.08;;;16.30;62.70;;;;;;5115432;28;20040;-77
2022/01/29 03:29:37;;;;;;;3.67;2.17;;;16.30;62.70;;;;;;5124956;27;20139;-76
2022/01/29 03:32:03;;;;;;;3.78;2.17;;;16.30;62.70;;;;;;5135013;27;20030;-75
2022/01/29 03:34:29;;;;;;;3.95;2.35;;;16.30;62.70;;;;;;5135820;27;20023;-76
2022/01/29 03:36:56;;;;;;;4.45;2.05;;;16.30;62.60;;;;;;5135545;27;20027;-75
2022/01/29 03:39:24;;;;;;;2.35;1.95;;;16.40;62.70;;;;;;5135256;27;20015;-74
2022/01/29 03:41:49;;;;;;;3.00;1.90;;;16.30;62.60;;;;;;5135312;27;20539;-75
2022/01/29 03:44:16;;;;;;;2.20;1.60;;;16.40;62.60;;;;;;5135178;27;20019;-75
2022/01/29 03:46:41;;;;;;;3.00;1.70;;;16.40;62.70;;;;;;5117103;27;20039;-74
2022/01/29 03:49:07;;;;;;;3.25;1.70;;;16.40;62.60;;;;;;5135748;27;20019;-77
2022/01/29 03:51:32;;;;;;;3.53;1.40;;;16.40;62.60;;;;;;5135022;27;20468;-75
2022/01/29 03:53:58;;;;;;;2.72;1.48;;;16.40;62.60;;;;;;5135228;27;20023;-73
2022/01/29 03:56:24;;;;;;;5.32;1.75;;;16.40;62.60;;;;;;5134836;27;20027;-75
2022/01/29 03:58:49;;;;;;;2.20;1.60;;;16.30;62.50;;;;;;5128581;27;20038;-74
2022/01/29 04:01:15;;;;;;;1.95;1.65;;;16.40;62.60;;;;;;5114188;28;20067;-76
2022/01/29 04:03:41;;;;;;;2.22;1.50;;;16.40;62.70;;;;;;5114595;28;20119;-73
2022/01/29 04:06:06;;;;;;;4.80;1.40;;;16.30;62.70;;;;;;5114490;28;20049;-75
2022/01/29 04:08:39;;;;;;;1.90;1.20;;;16.40;62.80;;;;;;5117726;27;20119;-76
2022/01/29 04:11:05;;;;;;;1.88;1.20;;;16.40;62.80;;;;;;5114378;28;20034;-75
2022/01/29 04:13:31;;;;;;;2.08;1.33;;;16.30;62.70;;;;;;5112580;28;20028;-75
2022/01/29 04:15:56;;;;;;;1.83;1.40;;;16.30;62.70;;;;;;5114182;28;20023;-76
2022/01/29 04:18:22;;;;;;;2.05;1.35;;;16.40;62.80;;;;;;5113857;28;20035;-75
2022/01/29 04:20:47;;;;;;;2.75;1.35;;;16.40;62.80;;;;;;5114113;28;20395;-73
2022/01/29 04:23:13;;;;;;;2.22;1.45;;;16.40;62.70;;;;;;5113344;28;20440;-73
2022/01/29 04:25:39;;;;;;;2.75;1.30;;;16.30;62.70;;;;;;5114109;28;20098;-74
2022/01/29 04:28:06;;;;;;;1.95;1.30;;;16.40;62.70;;;;;;5114118;28;20028;-74
2022/01/29 04:30:40;;;;;;;1.70;1.00;;;16.40;62.70;;;;;;5113633;28;20031;-73
2022/01/29 04:33:28;;;;;;;2.20;1.13;;;16.40;62.70;;;;;;5114003;28;20034;-74
2022/01/29 04:35:58;;;;;;;1.85;1.10;;;16.40;62.70;;;;;;5113897;28;20028;-74
2022/01/29 04:38:25;;;;;;;1.50;0.95;;;16.40;62.70;;;;;;5129336;27;20023;-75
2022/01/29 04:40:51;;;;;;;2.10;1.50;;;16.40;62.70;;;;;;5134344;27;20031;-75
2022/01/29 04:43:17;;;;;;;1.02;0.75;;;16.40;62.80;;;;;;5133976;27;20056;-73
2022/01/29 04:45:42;;;;;;;1.58;0.93;;;16.40;62.80;;;;;;5134470;27;20023;-75
2022/01/29 04:48:08;;;;;;;3.05;1.23;;;16.40;62.80;;;;;;5134172;27;20130;-73
2022/01/29 04:50:34;;;;;;;1.48;0.90;;;16.40;62.80;;;;;;5133910;27;20027;-74
2022/01/29 04:52:59;;;;;;;1.88;0.98;;;16.40;62.80;;;;;;5134058;27;20035;-74
2022/01/29 04:55:25;;;;;;;0.95;0.77;;;16.40;62.90;;;;;;5133670;27;20033;-75
2022/01/29 04:57:51;;;;;;;1.55;0.80;;;16.40;62.90;;;;;;5133454;27;20092;-73
2022/01/29 05:00:20;;;;;;;1.08;0.80;;;16.40;62.90;;;;;;5113117;28;20059;-75
2022/01/29 05:02:51;;;;;;;1.20;0.80;;;16.40;62.90;;;;;;5113144;28;20475;-73
2022/01/29 05:05:17;;;;;;;1.20;0.80;;;16.40;62.90;;;;;;5113059;28;20019;-74
2022/01/29 05:07:43;;;;;;;1.45;0.80;;;16.40;62.90;;;;;;5113371;28;20482;-72
2022/01/29 05:10:10;;;;;;;1.40;0.80;;;16.40;62.90;;;;;;5113416;28;20406;-73
2022/01/29 05:15:23;;;;;;;1.00;0.70;;;16.40;62.90;;;;;;5113356;28;20062;-76
2022/01/29 05:28:46;;;;;;;1.20;0.60;;;16.40;62.90;;;;;;5120133;27;20074;-76
2022/01/29 05:31:12;;;;;;;1.23;0.70;;;16.40;62.90;;;;;;5114942;27;20513;-76
2022/01/29 05:33:37;;;;;;;1.17;0.75;;;16.40;62.90;;;;;;5132849;27;20039;-76
2022/01/29 05:36:03;;;;;;;1.15;0.70;;;16.40;62.90;;;;;;5133246;27;20360;-76
2022/01/29 05:38:29;;;;;;;2.53;0.88;;;16.40;62.90;;;;;;5132413;27;20027;-76
2022/01/29 05:40:55;;;;;;;1.25;0.73;;;16.40;62.90;;;;;;5114619;27;20038;-77
2022/01/29 05:43:21;;;;;;;1.33;0.60;;;16.40;63.00;;;;;;5132965;27;20106;-75
2022/01/29 05:45:47;;;;;;;1.00;0.65;;;16.40;63.10;;;;;;5132853;27;20141;-76
2022/01/29 05:48:13;;;;;;;1.45;0.80;;;16.40;63.10;;;;;;5114818;27;20055;-77
2022/01/29 05:50:38;;;;;;;1.02;0.52;;;16.40;63.10;;;;;;5132717;27;20020;-77
2022/01/29 05:53:04;;;;;;;1.27;0.73;;;16.40;63.20;;;;;;5132917;27;20038;-76
2022/01/29 05:55:30;;;;;;;0.98;0.70;;;16.40;63.10;;;;;;5132527;27;20103;-74
2022/01/29 05:57:56;;;;;;;0.98;0.60;;;16.40;63.20;;;;;;5129504;27;20066;-77
2022/01/29 06:00:22;;;;;;;1.17;0.80;;;16.40;63.20;;;;;;5117041;27;20028;-77
2022/01/29 06:03:01;;;;;;;1.98;0.75;;;16.40;63.20;;;;;;5112002;28;20402;-77
2022/01/29 06:05:27;;;;;;;1.98;0.68;;;16.40;63.20;;;;;;5111705;28;20095;-77
2022/01/29 06:07:53;;;;;;;0.90;0.60;;;16.30;63.30;;;;;;5112181;28;20115;-77
2022/01/29 06:10:19;;;;;;;1.02;0.60;;;16.40;63.20;;;;;;5111866;28;20023;-77
2022/01/29 06:12:45;;;;;;;2.13;0.80;;;16.40;63.30;;;;;;5111975;28;20028;-77
2022/01/29 06:15:11;;;;;;;1.15;0.40;;;16.40;63.30;;;;;;5112380;28;20094;-76
2022/01/29 06:17:38;;;;;;;1.10;0.40;;;16.30;63.30;;;;;;5111745;28;20043;-76
2022/01/29 06:20:05;;;;;;;1.38;0.80;;;16.40;63.40;;;;;;5111980;28;20031;-77
2022/01/29 06:22:32;;;;;;;0.80;0.60;;;16.40;63.40;;;;;;5111660;28;20016;-77
2022/01/29 06:24:57;;;;;;;1.38;0.77;;;16.40;63.50;;;;;;5111881;28;20103;-74
2022/01/29 06:27:23;;;;;;;1.38;0.60;;;16.30;63.30;;;;;;5111457;28;20570;-74
2022/01/29 06:29:49;;;;;;;1.40;0.70;;;16.30;63.50;;;;;;5129977;27;20027;-76
2022/01/29 06:32:17;;;;;;;1.33;0.60;;;16.30;63.50;;;;;;5132008;27;20079;-75
2022/01/29 06:34:42;;;;;;;1.42;0.60;;;16.30;63.60;;;;;;5132448;27;20029;-76
2022/01/29 06:37:08;;;;;;;1.52;0.80;;;16.30;63.60;;;;;;5132308;27;20098;-77
2022/01/29 06:39:33;;;;;;;1.38;0.75;;;16.30;63.70;;;;;;5132051;27;20031;-76
2022/01/29 06:41:59;;;;;;;1.38;0.70;;;16.30;63.70;;;;;;5113826;28;20053;-74
2022/01/29 06:44:25;;;;;;;2.08;0.60;;;16.30;64.50;;;;;;5131904;27;20030;-76
2022/01/29 06:46:50;;;;;;;0.88;0.43;;;16.30;63.80;;;;;;5135622;27;20028;-75
2022/01/29 06:49:16;;;;;;;1.52;0.63;;;16.30;64.00;;;;;;5117696;27;20027;-74
2022/01/29 06:51:41;;;;;;;1.90;0.68;;;16.30;64.00;;;;;;5136684;27;20050;-75
2022/01/29 06:54:07;;;;;;;1.67;0.68;;;16.30;64.00;;;;;;5136429;27;20076;-75
2022/01/29 06:56:33;;;;;;;1.27;0.55;;;16.20;63.90;;;;;;5135995;27;20114;-76
2022/01/29 06:58:58;;;;;;;2.00;0.57;;;16.30;64.10;;;;;;5113924;28;20372;-76
2022/01/29 07:01:24;;;;;;;0.70;0.50;;;16.20;64.10;;;;;;5116597;27;20035;-76
2022/01/29 07:03:50;;;;;;;1.65;0.73;;;16.30;64.10;;;;;;5135990;27;20039;-75
2022/01/29 07:06:15;;;;;;;1.05;0.50;;;16.30;64.20;;;;;;5135881;27;20113;-75
2022/01/29 07:08:41;;;;;;;0.98;0.47;;;16.20;64.10;;;;;;5136476;27;20038;-74
2022/01/29 07:11:06;;;;;;;2.95;0.68;;;16.20;64.10;;;;;;5117487;27;20372;-76
2022/01/29 07:13:32;;;;;;;1.83;0.50;;;16.30;64.30;;;;;;5135697;27;20015;-75
2022/01/29 07:15:58;;;;;;;1.30;0.40;;;16.30;64.10;;;;;;5135950;27;20028;-74
2022/01/29 07:18:23;;;;;;;2.05;0.70;;;16.20;64.00;;;;;;5117211;27;20023;-76
2022/01/29 07:20:49;;;;;;;2.25;0.60;;;16.30;64.00;;;;;;5117569;27;20034;-76
2022/01/29 07:23:15;;;;;;;1.13;0.50;;;16.30;64.00;;;;;;5135420;27;20038;-76
2022/01/29 07:25:40;;;;;;;1.25;0.50;;;16.30;64.00;;;;;;5136016;27;20108;-76
2022/01/29 07:28:06;;;;;;;1.98;0.70;;;16.20;63.90;;;;;;5117695;27;20031;-76
2022/01/29 07:30:31;;;;;;;1.88;0.60;;;16.30;63.90;;;;;;5113510;28;20031;-75
2022/01/29 07:32:57;;;;;;;1.02;0.50;;;16.30;64.10;;;;;;5114912;28;20388;-75
2022/01/29 07:35:23;;;;;;;1.50;0.50;;;16.30;64.00;;;;;;5114815;28;20031;-75
2022/01/29 07:37:48;;;;;;;1.20;0.50;;;16.30;64.00;;;;;;5114967;28;20063;-74
2022/01/29 07:40:14;;;;;;;0.65;0.40;;;16.40;64.00;;;;;;5114645;28;20027;-74
2022/01/29 07:42:39;;;;;;;1.83;0.52;;;16.40;63.90;;;;;;5115107;28;20031;-74
2022/01/29 07:45:06;;;;;;;1.10;0.50;;;16.40;63.90;;;;;;5113454;28;20026;-74
2022/01/29 07:47:33;;;;;;;0.88;0.43;;;16.40;63.90;;;;;;5114513;28;20487;-74
2022/01/29 07:49:59;;;;;;;0.80;0.50;;;16.40;63.80;;;;;;5114883;28;20106;-76
2022/01/29 07:52:24;;;;;;;0.93;0.50;;;16.50;63.80;;;;;;5114616;28;20181;-76
2022/01/29 07:54:50;;;;;;;0.68;0.40;;;16.50;63.80;;;;;;5114621;28;20371;-76
2022/01/29 07:57:16;;;;;;;0.70;0.40;;;16.50;63.70;;;;;;5115636;27;20024;-76
2022/01/29 07:59:42;;;;;;;1.80;0.75;;;16.50;63.70;;;;;;5135403;27;20035;-76
2022/01/29 08:02:08;;;;;;;0.88;0.50;;;16.60;63.70;;;;;;5134954;27;20095;-75
2022/01/29 08:04:34;;;;;;;1.30;0.50;;;16.60;63.60;;;;;;5134739;27;20122;-75
2022/01/29 08:07:00;;;;;;;4.63;0.60;;;16.60;63.60;;;;;;5116437;27;20066;-75
2022/01/29 08:09:25;;;;;;;1.30;0.60;;;16.70;63.60;;;;;;5134539;27;20077;-75
2022/01/29 08:11:51;;;;;;;1.88;0.50;;;16.70;63.60;;;;;;5134955;27;20037;-74
2022/01/29 08:14:16;;;;;;;1.65;0.50;;;16.70;63.60;;;;;;5134605;27;20072;-75
2022/01/29 08:16:42;;;;;;;1.42;0.50;;;16.70;63.60;;;;;;5135079;27;20027;-75
2022/01/29 08:19:08;;;;;;;1.63;0.40;;;16.80;63.60;;;;;;5134606;27;20440;-75
2022/01/29 08:21:33;;;;;;;0.75;0.35;;;16.80;63.50;;;;;;5115935;27;20378;-77
2022/01/29 08:23:59;;;;;;;1.65;0.50;;;16.80;63.50;;;;;;5134596;27;20023;-76
2022/01/29 08:26:25;;;;;;;1.92;0.68;;;16.80;63.50;;;;;;5134265;27;20023;-75
2022/01/29 08:28:50;;;;;;;1.52;0.68;;;16.90;63.50;;;;;;5112228;28;20088;-75
2022/01/29 08:31:16;;;;;;;2.17;0.90;;;16.90;63.40;;;;;;5113506;28;20051;-75
2022/01/29 08:33:42;;;;;;;2.47;0.60;;;16.90;63.40;;;;;;5114279;28;20085;-74
2022/01/29 08:36:08;;;;;;;2.13;0.40;;;16.90;63.40;;;;;;5113923;28;20019;-76
2022/01/29 08:38:34;;;;;;;1.55;0.45;;;16.90;63.30;;;;;;5113479;28;20109;-76
2022/01/29 08:41:00;;;;;;;1.00;0.43;;;17.00;63.50;;;;;;5113713;28;20043;-76
2022/01/29 08:43:26;;;;;;;0.90;0.47;;;17.00;63.60;;;;;;5113405;28;20027;-76
2022/01/29 08:45:53;;;;;;;2.08;0.60;;;17.00;63.70;;;;;;5113681;28;20115;-76
2022/01/29 08:48:19;;;;;;;1.05;0.57;;;17.00;63.50;;;;;;5113325;28;20031;-75
2022/01/29 08:50:45;;;;;;;2.08;0.57;;;17.00;64.30;;;;;;5113660;28;20011;-76
2022/01/29 08:53:11;;;;;;;1.10;0.65;;;17.00;63.50;;;;;;5113654;28;20057;-76
2022/01/29 08:55:37;;;;;;;1.50;0.65;;;17.00;63.60;;;;;;5113226;28;20016;-76
2022/01/29 08:58:08;;;;;;;2.33;0.55;;;17.00;63.50;;;;;;5120928;27;20023;-76
2022/01/29 09:00:38;;;;;;;3.13;0.70;;;17.10;63.80;;;;;;5133740;27;20379;-76
2022/01/29 09:03:05;;;;;;;2.10;0.50;;;17.10;63.70;;;;;;5133350;27;20031;-75
2022/01/29 09:05:31;;;;;;;1.30;0.60;;;17.10;63.70;;;;;;5123327;27;20036;-79
2022/01/29 09:07:57;;;;;;;2.42;0.40;;;17.10;63.60;;;;;;5112513;28;20024;-77
2022/01/29 09:10:23;;;;;;;1.38;0.60;;;17.10;63.60;;;;;;5111676;28;20103;-75
2022/01/29 09:12:48;;;;;;;2.08;0.70;;;17.10;63.80;;;;;;5115676;27;20019;-80
2022/01/29 09:15:14;;;;;;;2.13;0.70;;;17.10;63.90;;;;;;5118442;27;20020;-74
2022/01/29 09:17:41;;;;;;;1.65;0.60;;;17.10;63.90;;;;;;5119814;27;20016;-77
2022/01/29 09:20:10;;;;;;;2.53;0.85;;;17.10;63.90;;;;;;5126357;27;20131;-74
2022/01/29 09:22:37;;;;;;;4.22;0.70;;;17.20;64.20;;;;;;5130223;27;20378;-76
2022/01/29 09:25:03;;;;;;;4.80;1.35;;;17.20;64.50;;;;;;5130012;27;20077;-79
2022/01/29 09:27:29;;;;;;;7.53;0.93;;;17.20;65.70;;;;;;5120619;27;20031;-74
2022/01/29 09:29:55;;;;;;;3.25;0.82;;;17.20;64.90;;;;;;5106669;27;20376;-77
2022/01/29 09:32:20;;;;;;;5.13;0.77;;;17.20;65.20;;;;;;5120581;27;20030;-79
2022/01/29 09:34:46;;;;;;;5.45;1.25;;;17.20;65.20;;;;;;5120973;27;20505;-76
2022/01/29 09:37:13;;;;;;;3.20;0.65;;;17.20;65.60;;;;;;5122534;27;20397;-78
2022/01/29 09:39:38;;;;;;;6.25;0.90;;;17.20;65.60;;;;;;5120778;27;20019;-79
2022/01/29 09:42:06;;;;;;;4.07;0.82;;;17.20;65.80;;;;;;5121357;27;20391;-79
2022/01/29 09:44:34;;;;;;;5.47;1.15;;;17.20;65.80;;;;;;5122648;27;20028;-77
2022/01/29 09:47:01;;;;;;;3.05;0.70;;;17.30;66.00;;;;;;5112043;28;20525;-76
2022/01/29 09:49:32;;;;;;;4.80;1.52;;;17.30;66.00;;;;;;5115274;27;20020;-75
2022/01/29 09:51:57;;;;;;;3.78;1.73;;;17.30;66.10;;;;;;5115901;27;20110;-75
2022/01/29 09:54:23;;;;;;;4.10;1.75;;;17.40;66.10;;;;;;5111997;28;20123;-73
2022/01/29 09:56:49;;;;;;;4.10;1.52;;;17.40;66.00;;;;;;5114539;27;20027;-74
2022/01/29 09:59:14;;;;;;;5.18;2.08;;;17.40;66.20;;;;;;5112161;27;20035;-77
2022/01/29 10:01:40;;;;;;;6.28;1.63;;;17.50;66.40;;;;;;5124019;27;20034;-85
2022/01/29 10:04:06;;;;;;;10.57;1.90;;;17.50;66.30;;;;;;5116963;27;20096;-83
2022/01/29 10:06:33;;;;;;;6.15;1.77;;;17.50;66.10;;;;;;5122703;27;20030;-82
2022/01/29 10:09:04;;;;;;;4.50;1.40;;;17.50;66.10;;;;;;5132673;27;20023;-81
2022/01/29 10:11:30;;;;;;;5.63;1.58;;;17.60;66.20;;;;;;5126192;27;20030;-79
2022/01/29 10:14:01;;;;;;;4.63;1.50;;;17.60;66.20;;;;;;5111929;28;20035;-79
2022/01/29 10:16:28;;;;;;;5.72;1.70;;;17.70;66.20;;;;;;5114215;27;20107;-75
2022/01/29 10:19:13;;;;;;;4.50;1.60;;;17.60;66.20;;;;;;5120999;27;20544;-75
2022/01/29 10:21:47;;;;;;;4.57;1.27;;;17.70;66.30;;;;;;5119233;27;20012;-76
2022/01/29 10:24:18;;;;;;;3.83;1.20;;;17.70;66.40;;;;;;5114520;27;20011;-76
2022/01/29 10:26:46;;;;;;;3.67;1.15;;;17.70;66.40;;;;;;5131370;27;20151;-75
2022/01/29 10:29:31;;;;;;;5.32;1.55;;;17.70;66.00;;;;;;5132566;27;20015;-75
2022/01/29 10:32:02;;;;;;;5.35;1.35;;;17.80;66.30;;;;;;5132224;27;20115;-74
2022/01/29 10:34:36;;;;;;;8.13;2.10;;;17.80;66.10;;;;;;5125613;27;20567;-80
2022/01/29 10:37:25;;;;;;;7.30;1.20;;;17.80;66.00;;;;;;5111434;28;20368;-77
2022/01/29 10:39:56;;;;;;;6.28;1.02;;;17.80;66.00;;;;;;5093198;28;20020;-78
2022/01/29 10:42:36;;;;;;;10.68;1.15;;;17.80;66.10;;;;;;5115412;28;20055;-79
2022/01/29 10:45:07;;;;;;;11.82;1.75;;;17.80;66.30;;;;;;5120546;28;20024;-78
2022/01/29 10:47:53;;;;;;;5.65;1.20;;;17.90;66.20;;;;;;5113269;28;20043;-79
2022/01/29 10:50:19;;;;;;;7.90;1.40;;;17.80;66.10;;;;;;5131868;28;20023;-74
2022/01/29 10:52:44;;;;;;;7.05;1.10;;;17.90;66.00;;;;;;5124699;28;20039;-74
2022/01/29 10:55:10;;;;;;;4.70;1.30;;;18.00;66.10;;;;;;5118666;28;20016;-74
2022/01/29 10:57:44;;;;;;;3.88;1.00;;;18.00;66.20;;;;;;5123375;28;20113;-75
2022/01/29 11:00:21;;;;;;;6.57;1.20;;;18.00;65.90;;;;;;5132216;28;20026;-75
2022/01/29 11:02:48;;;;;;;3.63;1.00;;;18.10;66.20;;;;;;5131987;28;20031;-75
2022/01/29 11:05:15;;;;;;;5.03;0.90;;;18.10;66.10;;;;;;5118739;28;20019;-75
2022/01/29 11:07:45;;;;;;;4.65;1.25;;;18.20;66.50;;;;;;5131691;27;20039;-74
2022/01/29 11:10:11;;;;;;;3.78;0.90;;;18.20;66.30;;;;;;5113825;28;20479;-74
2022/01/29 11:12:42;;;;;;;6.43;0.90;;;18.20;66.40;;;;;;5129120;28;20035;-79
2022/01/29 11:15:08;;;;;;;3.08;0.77;;;18.30;66.20;;;;;;5116036;28;20024;-79
2022/01/29 11:17:34;;;;;;;5.35;1.20;;;18.30;66.20;;;;;;5111089;28;20027;-78
2022/01/29 11:20:00;;;;;;;6.07;1.05;;;18.40;66.10;;;;;;5115395;28;20031;-78
2022/01/29 11:22:30;;;;;;;5.07;0.88;;;18.40;66.00;;;;;;5131456;28;20020;-75
2022/01/29 11:25:23;;;;;;;7.57;1.08;;;18.40;65.90;;;;;;5131893;28;20023;-75
2022/01/29 11:28:12;;;;;;;4.70;0.90;;;18.40;65.80;;;;;;5127632;28;20058;-75
2022/01/29 11:30:38;;;;;;;4.13;1.10;;;18.50;65.80;;;;;;5131509;28;20019;-75
2022/01/29 11:33:03;;;;;;;3.03;0.73;;;18.50;65.50;;;;;;5135204;27;20374;-77
2022/01/29 11:35:31;;;;;;;3.08;0.82;;;18.50;65.50;;;;;;5135355;27;20050;-76
2022/01/29 11:38:07;;;;;;;4.90;1.20;;;18.50;65.50;;;;;;5135598;27;20019;-79
2022/01/29 11:40:54;;;;;;;3.88;0.90;;;18.60;65.00;;;;;;5135156;27;20088;-78
2022/01/29 11:43:19;;;;;;;5.20;1.20;;;18.70;64.50;;;;;;5133945;27;20019;-78
2022/01/29 11:45:51;;;;;;;4.88;0.90;;;19.00;64.20;;;;;;5135427;27;20027;-77
2022/01/29 11:48:34;;;;;;;2.70;0.90;;;19.00;63.50;;;;;;5135048;27;20041;-75
2022/01/29 11:51:07;;;;;;;2.70;0.90;;;18.90;63.90;;;;;;5135275;27;20374;-75
2022/01/29 11:53:45;;;;;;;4.63;0.90;;;19.00;63.60;;;;;;5135059;27;20034;-75
2022/01/29 11:56:34;;;;;;;6.50;1.20;;;19.30;63.40;;;;;;5135493;27;20117;-75
2022/01/29 11:59:17;;;;;;;5.40;0.90;;;19.50;62.20;;;;;;5134995;27;20386;-75
2022/01/29 12:01:44;;;;;;;4.80;0.98;;;19.30;62.50;;;;;;5135451;27;20027;-75
2022/01/29 12:04:10;;;;;;;7.93;0.98;;;19.10;62.80;;;;;;5135243;27;20020;-74
2022/01/29 12:06:41;;;;;;;4.13;1.13;;;19.20;62.80;;;;;;5134734;27;20110;-74
2022/01/29 12:09:19;;;;;;;4.93;0.98;;;19.00;63.00;;;;;;5134927;27;20547;-75
2022/01/29 12:12:18;;;;;;;2.25;0.90;;;18.90;63.30;;;;;;5125212;27;20540;-75
2022/01/29 12:14:47;;;;;;;4.53;0.90;;;19.00;63.40;;;;;;5113137;28;20115;-76
2022/01/29 12:17:45;;;;;;;4.65;1.00;;;19.40;61.50;;;;;;5114384;28;20020;-75
2022/01/29 12:20:19;;;;;;;2.78;1.05;;;19.10;62.40;;;;;;5112970;28;20037;-76
2022/01/29 12:22:50;;;;;;;4.10;1.08;;;18.90;62.80;;;;;;5114195;28;20067;-77
2022/01/29 12:25:18;;;;;;;4.13;0.90;;;18.80;63.30;;;;;;5113910;28;20046;-76
2022/01/29 12:27:47;;;;;;;3.13;1.10;;;18.90;63.60;;;;;;5113769;28;20429;-75
2022/01/29 12:30:16;;;;;;;5.53;1.35;;;18.70;63.50;;;;;;5114067;28;20107;-75
2022/01/29 12:33:02;;;;;;;4.40;1.30;;;18.80;63.60;;;;;;5113518;28;20056;-75
2022/01/29 12:35:37;;;;;;;4.88;0.93;;;18.60;63.70;;;;;;5113648;28;20031;-75
2022/01/29 12:38:05;;;;;;;4.72;1.08;;;18.50;64.10;;;;;;5112612;28;20038;-76
2022/01/29 12:40:37;;;;;;;1.63;0.95;;;18.60;63.80;;;;;;5113673;27;20023;-75
2022/01/29 12:43:11;;;;;;;3.63;1.00;;;18.60;63.90;;;;;;5132100;27;20046;-78
2022/01/29 12:45:38;;;;;;;5.35;1.23;;;18.40;64.10;;;;;;5134132;27;20055;-76
2022/01/29 12:48:11;;;;;;;2.47;1.02;;;18.80;63.00;;;;;;5134276;27;20035;-75
2022/01/29 12:50:41;;;;;;;2.50;0.93;;;18.80;63.20;;;;;;5133741;27;20027;-75
2022/01/29 12:53:20;;;;;;;3.28;0.90;;;18.60;63.50;;;;;;5134184;27;20360;-75
2022/01/29 12:56:03;;;;;;;5.35;0.90;;;18.70;63.40;;;;;;5132224;27;20019;-75
2022/01/29 12:58:40;;;;;;;2.88;0.60;;;18.80;63.70;;;;;;5115975;27;20038;-76
2022/01/29 13:01:11;;;;;;;4.05;1.00;;;19.00;62.80;;;;;;5113461;28;20035;-77
2022/01/29 13:03:38;;;;;;;3.58;1.00;;;19.70;61.00;;;;;;5113100;28;20111;-76